createdAt,value
2018-08-23T00:01:39.651Z,14.20
2018-08-23T00:04:09.019Z,14.20
2018-08-23T00:06:40.314Z,14.10
2018-08-23T00:09:08.530Z,14.10
2018-08-23T00:11:40.952Z,14.10
2018-08-23T00:14:09.131Z,14.00
2018-08-23T00:16:42.303Z,14.00
2018-08-23T00:19:10.409Z,14.00
2018-08-23T00:35:34.112Z,13.80
2018-08-23T00:41:44.395Z,13.70
2018-08-23T00:44:12.536Z,13.70
2018-08-23T00:46:40.640Z,13.60
2018-08-23T00:49:08.767Z,13.60
2018-08-23T00:55:17.028Z,13.60
2018-08-23T00:57:47.890Z,13.50
2018-08-23T01:00:21.351Z,13.40
2018-08-23T01:02:50.179Z,13.50
2018-08-23T01:05:45.581Z,13.50
2018-08-23T01:18:20.095Z,13.30
2018-08-23T01:20:49.694Z,13.50
2018-08-23T01:23:26.688Z,13.50
2018-08-23T01:25:55.179Z,13.40
2018-08-23T01:28:24.886Z,13.40
2018-08-23T01:37:37.658Z,13.40
2018-08-23T02:00:18.174Z,12.90
2018-08-23T02:06:35.373Z,12.90
2018-08-23T02:13:37.964Z,12.80
2018-08-23T02:16:05.114Z,12.80
2018-08-23T02:22:13.760Z,12.70
2018-08-23T02:28:10.699Z,12.60
2018-08-23T02:30:57.697Z,12.80
2018-08-23T02:33:26.497Z,12.90
2018-08-23T02:39:09.139Z,12.90
2018-08-23T02:49:00.193Z,12.70
2018-08-23T02:55:08.399Z,12.90
2018-08-23T03:01:18.434Z,12.40
2018-08-23T03:04:08.466Z,12.40
2018-08-23T03:07:01.592Z,12.40
2018-08-23T03:09:36.608Z,12.40
2018-08-23T03:22:18.488Z,12.20
2018-08-23T03:24:46.632Z,12.30
2018-08-23T03:27:14.764Z,12.30
2018-08-23T03:29:42.970Z,12.30
2018-08-23T03:33:11.389Z,12.20
2018-08-23T03:44:54.818Z,12.30
2018-08-23T03:47:23.324Z,12.30
2018-08-23T03:49:51.610Z,12.20
2018-08-23T03:52:39.099Z,12.20
2018-08-23T03:55:11.134Z,12.20
2018-08-23T03:58:10.488Z,12.00
2018-08-23T04:01:14.439Z,11.90
2018-08-23T04:04:00.148Z,11.90
2018-08-23T04:06:31.839Z,12.00
2018-08-23T04:09:00.017Z,12.00
2018-08-23T04:11:28.206Z,11.90
2018-08-23T04:20:30.748Z,12.30
2018-08-23T04:23:08.051Z,12.40
2018-08-23T04:38:44.311Z,13.30
2018-08-23T04:41:19.049Z,13.50
2018-08-23T09:23:57.850Z,32.50
2018-08-23T09:27:15.425Z,32.60
2018-08-23T09:33:07.650Z,37.40
2018-08-23T09:42:48.441Z,38.30
2018-08-23T09:45:54.558Z,38.30
2018-08-23T09:48:22.957Z,38.80
2018-08-23T09:50:51.443Z,37.90
2018-08-23T09:53:26.046Z,37.80
2018-08-23T09:55:55.499Z,38.20
2018-08-23T09:58:41.169Z,37.90
2018-08-23T10:01:26.777Z,37.00
2018-08-23T10:04:12.776Z,37.10
2018-08-23T10:06:58.662Z,36.90
2018-08-23T10:09:27.201Z,37.90
2018-08-23T10:12:12.851Z,37.20
2018-08-23T10:14:59.737Z,36.80
2018-08-23T10:17:46.086Z,37.80
2018-08-23T10:20:31.920Z,38.40
2018-08-23T10:23:21.150Z,38.80
2018-08-23T10:25:50.791Z,39.20
2018-08-23T10:28:23.526Z,40.30
2018-08-23T10:31:00.939Z,40.30
2018-08-23T10:33:18.681Z,40.80
2018-08-23T10:35:53.786Z,41.50
2018-08-23T10:38:24.308Z,41.90
2018-08-23T10:40:54.249Z,41.20
2018-08-23T10:43:39.822Z,41.20
2018-08-23T10:46:07.978Z,40.90
2018-08-23T10:51:04.694Z,40.10
2018-08-23T10:53:33.702Z,39.10
2018-08-23T10:56:01.909Z,39.00
2018-08-23T10:58:30.339Z,39.00
2018-08-23T11:00:58.518Z,38.00
2018-08-23T11:03:26.806Z,37.90
2018-08-23T11:05:56.150Z,38.40
2018-08-23T11:08:26.053Z,38.40
2018-08-23T11:11:11.970Z,38.30
2018-08-23T11:13:49.637Z,39.00
2018-08-23T11:16:35.265Z,39.60
2018-08-23T11:19:21.621Z,39.30
2018-08-23T11:21:51.910Z,40.00
2018-08-23T11:27:42.734Z,40.40
2018-08-23T11:30:23.991Z,41.00
2018-08-23T11:32:56.067Z,41.90
2018-08-23T11:35:24.163Z,41.10
2018-08-23T11:37:52.279Z,40.60
2018-08-23T11:47:03.401Z,40.00
2018-08-23T11:49:31.550Z,39.00
2018-08-23T11:52:18.771Z,38.60
2018-08-23T11:54:46.914Z,38.90
2018-08-23T11:57:15.116Z,39.80
2018-08-23T11:59:43.328Z,40.80
2018-08-23T12:02:11.507Z,40.90
2018-08-23T12:04:46.193Z,40.50
2018-08-23T12:07:16.315Z,40.20
2018-08-23T12:09:44.515Z,40.70
2018-08-23T12:12:20.184Z,41.60
2018-08-23T12:18:10.071Z,41.50
2018-08-23T12:24:14.648Z,39.60
2018-08-23T12:26:42.853Z,37.40
2018-08-23T12:29:11.282Z,37.40
2018-08-23T12:35:01.149Z,38.30
2018-08-23T12:37:46.843Z,38.80
2018-08-23T12:40:38.619Z,38.70
2018-08-23T12:43:11.780Z,39.10
2018-08-23T12:45:43.638Z,38.80
2018-08-23T12:48:13.207Z,38.10
2018-08-23T12:50:43.083Z,38.20
2018-08-23T12:53:11.594Z,37.90
2018-08-23T12:55:39.776Z,36.50
2018-08-23T12:58:14.774Z,35.60
2018-08-23T13:00:43.172Z,35.30
2018-08-23T13:03:11.416Z,34.90
2018-08-23T13:05:40.075Z,34.90
2018-08-23T13:08:08.345Z,34.80
2018-08-23T13:10:37.178Z,35.10
2018-08-23T13:13:05.730Z,35.40
2018-08-23T13:15:33.946Z,35.80
2018-08-23T13:18:05.186Z,35.50
2018-08-23T13:20:35.154Z,35.60
2018-08-23T13:23:03.348Z,36.10
2018-08-23T13:25:34.299Z,36.60
2018-08-23T13:28:02.467Z,36.90
2018-08-23T13:30:32.434Z,37.10
2018-08-23T13:33:03.147Z,36.70
2018-08-23T13:35:31.402Z,36.10
2018-08-23T13:38:00.181Z,35.70
2018-08-23T13:40:49.489Z,34.90
2018-08-23T13:43:17.886Z,34.70
2018-08-23T13:45:46.927Z,35.10
2018-08-23T13:48:15.590Z,35.70
2018-08-23T13:50:43.755Z,35.40
2018-08-23T13:53:12.178Z,35.10
2018-08-23T13:55:41.107Z,34.70
2018-08-23T13:58:16.476Z,34.70
2018-08-23T14:00:52.440Z,34.60
2018-08-23T14:03:20.608Z,34.40
2018-08-23T14:05:53.144Z,34.40
2018-08-23T14:08:21.570Z,34.10
2018-08-23T14:10:49.675Z,34.30
2018-08-23T14:13:17.823Z,34.40
2018-08-23T14:16:07.987Z,34.40
2018-08-23T14:18:37.975Z,34.80
2018-08-23T14:21:10.727Z,35.10
2018-08-23T14:23:38.883Z,35.20
2018-08-23T14:26:18.713Z,35.40
2018-08-23T14:28:47.474Z,35.10
2018-08-23T14:31:15.870Z,34.70
2018-08-23T14:33:44.439Z,34.60
2018-08-23T14:36:12.883Z,34.50
2018-08-23T14:38:41.402Z,34.50
2018-08-23T14:41:09.571Z,34.60
2018-08-23T14:43:39.784Z,34.40
2018-08-23T14:46:25.782Z,34.30
2018-08-23T14:48:55.609Z,34.20
2018-08-23T14:51:23.754Z,34.10
2018-08-23T14:53:52.198Z,34.10
2018-08-23T14:56:38.988Z,34.10
2018-08-23T14:59:07.253Z,34.10
2018-08-23T15:01:35.742Z,34.00
2018-08-23T15:04:04.501Z,34.00
2018-08-23T15:06:35.440Z,34.30
2018-08-23T15:09:11.204Z,34.40
2018-08-23T15:11:39.612Z,34.70
2018-08-23T15:14:07.888Z,34.70
2018-08-23T15:16:37.552Z,34.50
2018-08-23T15:19:06.177Z,34.20
2018-08-23T15:21:34.351Z,34.20
2018-08-23T15:24:02.525Z,34.20
2018-08-23T15:26:32.724Z,34.10
2018-08-23T15:29:04.712Z,34.10
2018-08-23T15:31:33.153Z,34.00
2018-08-23T15:34:01.355Z,34.00
2018-08-23T15:36:29.520Z,33.90
2018-08-23T15:39:00.877Z,33.90
2018-08-23T15:41:29.362Z,33.70
2018-08-23T15:43:57.824Z,33.60
2018-08-23T15:46:43.425Z,33.50
2018-08-23T15:49:13.233Z,33.60
2018-08-23T15:51:42.278Z,33.90
2018-08-23T15:54:11.376Z,34.00
2018-08-23T15:56:40.301Z,34.00
2018-08-23T15:59:08.552Z,33.90
2018-08-23T16:01:40.222Z,33.90
2018-08-23T16:04:11.750Z,34.10
2018-08-23T16:06:40.063Z,34.20
2018-08-23T16:09:09.941Z,34.20
2018-08-23T16:11:38.373Z,34.20
2018-08-23T16:14:42.734Z,34.40
2018-08-23T16:17:28.681Z,34.40
2018-08-23T16:20:15.483Z,34.30
2018-08-23T16:22:43.948Z,33.90
2018-08-23T16:25:12.358Z,33.60
2018-08-23T16:27:42.674Z,33.50
2018-08-23T16:30:13.632Z,33.40
2018-08-23T16:32:42.453Z,33.40
2018-08-23T16:35:10.678Z,33.40
2018-08-23T16:37:39.379Z,33.40
2018-08-23T16:40:07.867Z,33.40
2018-08-23T16:42:36.494Z,33.40
2018-08-23T16:45:05.029Z,33.30
2018-08-23T16:47:33.362Z,33.20
2018-08-23T16:50:02.867Z,33.20
2018-08-23T16:52:35.647Z,33.00
2018-08-23T16:55:11.518Z,33.00
2018-08-23T16:57:40.856Z,33.00
2018-08-23T17:00:09.143Z,33.00
2018-08-23T17:02:37.878Z,32.90
2018-08-23T17:05:06.224Z,32.80
2018-08-23T17:07:34.494Z,32.70
2018-08-23T17:10:07.345Z,32.60
2018-08-23T17:12:36.878Z,32.50
2018-08-23T17:15:06.000Z,32.40
2018-08-23T17:17:35.909Z,32.20
2018-08-23T17:20:07.593Z,32.00
2018-08-23T17:22:43.537Z,31.90
2018-08-23T17:25:15.322Z,31.80
2018-08-23T17:27:43.552Z,31.70
2018-08-23T17:30:14.843Z,31.50
2018-08-23T17:32:45.731Z,31.50
2018-08-23T17:35:15.052Z,31.40
2018-08-23T17:37:44.088Z,31.30
2018-08-23T17:40:12.695Z,31.10
2018-08-23T17:42:44.618Z,31.00
2018-08-23T17:45:14.409Z,31.00
2018-08-23T17:47:45.247Z,30.90
2018-08-23T17:50:14.815Z,30.80
2018-08-23T17:52:45.176Z,30.70
2018-08-23T17:55:15.848Z,30.50
2018-08-23T17:57:45.206Z,30.40
2018-08-23T18:00:12.695Z,30.40
2018-08-23T18:02:41.209Z,30.30
2018-08-23T18:05:10.996Z,30.20
2018-08-23T18:07:39.299Z,30.10
2018-08-23T18:10:07.595Z,30.00
2018-08-23T18:12:37.185Z,30.00
2018-08-23T18:15:08.683Z,29.90
2018-08-23T18:17:40.202Z,29.90
2018-08-23T18:20:08.848Z,29.80
2018-08-23T18:22:38.708Z,29.80
2018-08-23T18:25:07.044Z,29.80
2018-08-23T18:27:35.969Z,29.60
2018-08-23T18:30:05.896Z,29.60
2018-08-23T18:32:33.254Z,29.60
2018-08-23T18:35:01.654Z,29.50
2018-08-23T18:37:30.249Z,29.50
2018-08-23T18:39:58.822Z,29.40
2018-08-23T18:42:27.821Z,29.40
2018-08-23T18:51:37.117Z,29.00
2018-08-23T18:54:13.343Z,28.90
2018-08-23T18:56:46.796Z,28.80
2018-08-23T18:59:22.653Z,28.90
2018-08-23T19:01:52.562Z,28.80
2018-08-23T19:08:01.219Z,28.20
2018-08-23T19:10:31.846Z,27.70
2018-08-23T19:13:00.204Z,27.30
2018-08-23T19:15:47.679Z,27.00
2018-08-23T19:18:16.021Z,26.90
2018-08-23T19:20:44.303Z,26.60
2018-08-23T19:23:12.479Z,26.60
2018-08-23T19:29:24.526Z,26.30
2018-08-23T19:32:01.279Z,26.00
2018-08-23T19:34:41.481Z,25.40
2018-08-23T19:37:46.414Z,25.00
2018-08-23T19:41:08.182Z,24.60
2018-08-23T19:43:36.811Z,24.50
2018-08-23T19:46:32.439Z,24.30
2018-08-23T19:49:10.063Z,24.30
2018-08-23T19:58:37.178Z,24.00
2018-08-23T20:01:47.415Z,23.80
2018-08-23T20:05:19.930Z,23.80
2018-08-23T20:07:51.365Z,23.90
2018-08-23T20:10:21.236Z,24.00
2018-08-23T20:12:52.610Z,24.00
2018-08-23T20:15:27.123Z,24.00
2018-08-23T20:17:58.060Z,24.00
2018-08-23T20:20:29.297Z,23.90
2018-08-23T20:22:59.848Z,23.70
2018-08-23T20:26:15.711Z,23.60
2018-08-23T20:39:02.916Z,23.20
2018-08-23T20:41:36.777Z,23.10
2018-08-23T20:44:09.887Z,23.00
2018-08-23T20:46:47.137Z,23.00
2018-08-23T20:49:21.979Z,23.00
2018-08-23T20:52:25.439Z,23.00
2018-08-23T20:55:36.636Z,23.00
2018-08-23T20:58:10.752Z,23.00
2018-08-23T21:07:22.860Z,22.90
2018-08-23T21:09:51.212Z,22.60
2018-08-23T21:12:22.317Z,22.50
2018-08-23T21:15:01.853Z,22.50
2018-08-23T21:17:30.821Z,22.50
2018-08-23T21:20:02.297Z,22.60
2018-08-23T21:22:31.113Z,22.60
2018-08-23T21:25:03.355Z,22.60
2018-08-23T21:27:31.545Z,22.60
2018-08-23T21:29:59.902Z,22.60
2018-08-23T21:32:29.075Z,22.60
2018-08-23T21:35:00.865Z,22.70
2018-08-23T21:37:31.673Z,22.70
2018-08-23T21:40:04.785Z,22.70
2018-08-23T21:42:34.033Z,22.80
2018-08-23T21:45:03.095Z,22.90
2018-08-23T21:47:33.709Z,22.90
2018-08-23T21:53:23.827Z,22.90
2018-08-23T21:55:54.013Z,22.70
2018-08-23T21:58:33.781Z,22.60
2018-08-23T22:01:05.811Z,22.60
2018-08-23T22:03:38.880Z,22.50
2018-08-23T22:06:11.289Z,22.50
2018-08-23T22:12:06.299Z,22.50
2018-08-23T22:14:37.340Z,22.50
2018-08-23T22:17:05.598Z,22.50
2018-08-23T22:19:56.670Z,22.50
2018-08-23T22:22:28.280Z,22.50
2018-08-23T22:28:18.575Z,22.40
2018-08-23T22:37:53.292Z,22.60
2018-08-23T22:40:21.905Z,22.60
2018-08-23T22:42:51.196Z,22.60
2018-08-23T22:45:19.470Z,22.60
2018-08-23T22:47:47.781Z,22.50
2018-08-23T22:50:19.592Z,22.40
2018-08-23T22:52:50.214Z,22.30
2018-08-23T22:55:25.640Z,22.30
2018-08-23T22:57:57.898Z,22.20
2018-08-23T23:00:42.344Z,22.00
2018-08-23T23:03:30.444Z,22.00
2018-08-23T23:06:00.282Z,22.00
2018-08-23T23:08:51.745Z,22.10
2018-08-23T23:11:20.448Z,22.10
2018-08-23T23:13:48.776Z,22.10
2018-08-23T23:40:07.590Z,21.40
2018-08-23T23:42:36.027Z,21.30
2018-08-23T23:48:05.781Z,21.20
2018-08-23T23:50:35.617Z,21.10
2018-08-23T23:53:08.891Z,21.10
2018-08-23T23:55:39.518Z,21.00
2018-08-23T23:58:08.108Z,20.90
